Terminal Aerodrome Forecast
Issued by NWS Green Bay, WI

Home | Current Version | Previous Version | Text Only | Print | Product List | Glossary On
Versions: 1 2 3 4 5 6 7 8 9 10 11 12 13 14 15 16 17 18 19 20 21 22 23 24 25
000
FTUS43 KGRB 130500
TAFGRB
TAF
KGRB 130533Z 1306/1406 27005KT P6SM SCT100
     FM131000 27009KT P6SM SCT015
     FM131600 28012G18KT P6SM SCT040
     FM140000 27005KT P6SM SCT040=

USA.gov is the U.S. government's official web portal to all federal, state and local government web resources and services.